sensor_id;sensor_type;location;lat;lon;timestamp;P1;durP1;ratioP1;P2;durP2;ratioP2
56171;SDS011;42052;41.634;-0.946;2023-05-07T00:02:11;3.42;;;1.00;;
56171;SDS011;42052;41.634;-0.946;2023-05-07T00:04:57;3.75;;;1.10;;
56171;SDS011;42052;41.634;-0.946;2023-05-07T00:07:43;4.22;;;1.17;;
56171;SDS011;42052;41.634;-0.946;2023-05-07T00:10:29;3.58;;;1.15;;
56171;SDS011;42052;41.634;-0.946;2023-05-07T00:13:15;4.47;;;1.13;;
56171;SDS011;42052;41.634;-0.946;2023-05-07T00:16:02;5.07;;;1.02;;
56171;SDS011;42052;41.634;-0.946;2023-05-07T00:18:48;3.95;;;1.00;;
56171;SDS011;42052;41.634;-0.946;2023-05-07T00:21:34;2.55;;;1.10;;
56171;SDS011;42052;41.634;-0.946;2023-05-07T00:24:20;2.42;;;1.00;;
56171;SDS011;42052;41.634;-0.946;2023-05-07T00:27:06;5.43;;;1.08;;
56171;SDS011;42052;41.634;-0.946;2023-05-07T00:29:52;2.40;;;0.90;;
56171;SDS011;42052;41.634;-0.946;2023-05-07T00:32:38;3.45;;;1.10;;
56171;SDS011;42052;41.634;-0.946;2023-05-07T00:35:27;4.30;;;1.10;;
56171;SDS011;42052;41.634;-0.946;2023-05-07T00:38:14;3.75;;;1.17;;
56171;SDS011;42052;41.634;-0.946;2023-05-07T00:41:00;3.60;;;1.08;;
56171;SDS011;42052;41.634;-0.946;2023-05-07T00:43:47;3.72;;;1.00;;
56171;SDS011;42052;41.634;-0.946;2023-05-07T00:46:33;2.40;;;0.80;;
56171;SDS011;42052;41.634;-0.946;2023-05-07T00:49:20;3.30;;;0.90;;
56171;SDS011;42052;41.634;-0.946;2023-05-07T00:52:07;3.50;;;0.82;;
56171;SDS011;42052;41.634;-0.946;2023-05-07T00:54:54;3.05;;;0.80;;
56171;SDS011;42052;41.634;-0.946;2023-05-07T00:57:41;5.05;;;1.10;;
56171;SDS011;42052;41.634;-0.946;2023-05-07T01:00:27;5.07;;;0.90;;
56171;SDS011;42052;41.634;-0.946;2023-05-07T01:03:13;2.45;;;0.90;;
56171;SDS011;42052;41.634;-0.946;2023-05-07T01:06:00;3.70;;;1.10;;
56171;SDS011;42052;41.634;-0.946;2023-05-07T01:08:47;2.83;;;0.88;;
56171;SDS011;42052;41.634;-0.946;2023-05-07T01:11:35;3.63;;;0.90;;
56171;SDS011;42052;41.634;-0.946;2023-05-07T01:14:21;2.53;;;0.80;;
56171;SDS011;42052;41.634;-0.946;2023-05-07T01:17:08;4.60;;;1.00;;
56171;SDS011;42052;41.634;-0.946;2023-05-07T01:19:54;3.28;;;0.95;;
56171;SDS011;42052;41.634;-0.946;2023-05-07T01:22:40;4.00;;;1.10;;
56171;SDS011;42052;41.634;-0.946;2023-05-07T01:25:28;3.53;;;0.82;;
56171;SDS011;42052;41.634;-0.946;2023-05-07T01:28:14;1.85;;;0.75;;
56171;SDS011;42052;41.634;-0.946;2023-05-07T01:31:02;3.50;;;0.90;;
56171;SDS011;42052;41.634;-0.946;2023-05-07T01:33:49;1.95;;;0.80;;
56171;SDS011;42052;41.634;-0.946;2023-05-07T01:36:37;2.53;;;0.73;;
56171;SDS011;42052;41.634;-0.946;2023-05-07T01:39:25;2.72;;;0.80;;
56171;SDS011;42052;41.634;-0.946;2023-05-07T01:42:13;2.83;;;0.90;;
56171;SDS011;42052;41.634;-0.946;2023-05-07T01:45:00;2.63;;;0.80;;
56171;SDS011;42052;41.634;-0.946;2023-05-07T01:47:46;2.13;;;0.73;;
56171;SDS011;42052;41.634;-0.946;2023-05-07T01:50:32;3.10;;;1.00;;
56171;SDS011;42052;41.634;-0.946;2023-05-07T01:53:20;3.20;;;1.00;;
56171;SDS011;42052;41.634;-0.946;2023-05-07T01:56:06;2.50;;;0.75;;
56171;SDS011;42052;41.634;-0.946;2023-05-07T01:58:52;2.40;;;0.75;;
56171;SDS011;42052;41.634;-0.946;2023-05-07T02:01:39;3.85;;;0.60;;
56171;SDS011;42052;41.634;-0.946;2023-05-07T02:04:25;2.72;;;1.00;;
56171;SDS011;42052;41.634;-0.946;2023-05-07T02:07:11;1.92;;;0.80;;
56171;SDS011;42052;41.634;-0.946;2023-05-07T02:09:57;2.42;;;0.68;;
56171;SDS011;42052;41.634;-0.946;2023-05-07T02:12:43;2.88;;;0.95;;
56171;SDS011;42052;41.634;-0.946;2023-05-07T02:15:29;2.05;;;0.75;;
56171;SDS011;42052;41.634;-0.946;2023-05-07T02:18:16;1.90;;;0.73;;
56171;SDS011;42052;41.634;-0.946;2023-05-07T02:21:02;2.30;;;0.85;;
56171;SDS011;42052;41.634;-0.946;2023-05-07T02:23:48;2.03;;;0.77;;
56171;SDS011;42052;41.634;-0.946;2023-05-07T02:26:34;2.47;;;0.82;;
56171;SDS011;42052;41.634;-0.946;2023-05-07T02:29:20;2.88;;;0.80;;
56171;SDS011;42052;41.634;-0.946;2023-05-07T02:32:06;4.53;;;0.85;;
56171;SDS011;42052;41.634;-0.946;2023-05-07T02:34:52;3.83;;;0.77;;
56171;SDS011;42052;41.634;-0.946;2023-05-07T02:37:39;4.07;;;0.77;;
56171;SDS011;42052;41.634;-0.946;2023-05-07T02:40:25;2.63;;;0.80;;
56171;SDS011;42052;41.634;-0.946;2023-05-07T02:43:11;4.07;;;0.80;;
56171;SDS011;42052;41.634;-0.946;2023-05-07T02:46:01;1.20;;;0.60;;
56171;SDS011;42052;41.634;-0.946;2023-05-07T02:48:51;1.60;;;0.68;;
56171;SDS011;42052;41.634;-0.946;2023-05-07T02:51:37;2.30;;;0.55;;
56171;SDS011;42052;41.634;-0.946;2023-05-07T02:54:23;1.23;;;0.70;;
56171;SDS011;42052;41.634;-0.946;2023-05-07T02:57:10;2.20;;;0.55;;
56171;SDS011;42052;41.634;-0.946;2023-05-07T02:59:57;2.50;;;0.65;;
56171;SDS011;42052;41.634;-0.946;2023-05-07T03:02:44;3.78;;;0.80;;
56171;SDS011;42052;41.634;-0.946;2023-05-07T03:05:30;2.45;;;0.70;;
56171;SDS011;42052;41.634;-0.946;2023-05-07T03:08:17;2.03;;;0.65;;
56171;SDS011;42052;41.634;-0.946;2023-05-07T03:11:03;3.42;;;0.88;;
56171;SDS011;42052;41.634;-0.946;2023-05-07T03:13:49;1.58;;;0.70;;
56171;SDS011;42052;41.634;-0.946;2023-05-07T03:16:35;3.00;;;0.60;;
56171;SDS011;42052;41.634;-0.946;2023-05-07T03:19:21;2.72;;;0.80;;
56171;SDS011;42052;41.634;-0.946;2023-05-07T03:22:07;1.92;;;0.73;;
56171;SDS011;42052;41.634;-0.946;2023-05-07T03:24:53;1.85;;;0.70;;
56171;SDS011;42052;41.634;-0.946;2023-05-07T03:27:39;1.92;;;0.60;;
56171;SDS011;42052;41.634;-0.946;2023-05-07T03:30:27;1.60;;;0.70;;
56171;SDS011;42052;41.634;-0.946;2023-05-07T03:33:13;2.78;;;0.70;;
56171;SDS011;42052;41.634;-0.946;2023-05-07T03:35:59;2.13;;;0.80;;
56171;SDS011;42052;41.634;-0.946;2023-05-07T03:38:46;1.45;;;0.52;;
56171;SDS011;42052;41.634;-0.946;2023-05-07T03:41:32;1.95;;;0.77;;
56171;SDS011;42052;41.634;-0.946;2023-05-07T03:44:18;2.95;;;0.80;;
56171;SDS011;42052;41.634;-0.946;2023-05-07T03:47:04;2.05;;;0.70;;
56171;SDS011;42052;41.634;-0.946;2023-05-07T03:49:50;3.20;;;0.80;;
56171;SDS011;42052;41.634;-0.946;2023-05-07T03:52:38;1.55;;;0.70;;
56171;SDS011;42052;41.634;-0.946;2023-05-07T03:55:24;1.98;;;0.60;;
56171;SDS011;42052;41.634;-0.946;2023-05-07T03:58:10;0.98;;;0.60;;
56171;SDS011;42052;41.634;-0.946;2023-05-07T04:00:56;2.22;;;0.80;;
56171;SDS011;42052;41.634;-0.946;2023-05-07T04:03:43;2.20;;;0.73;;
56171;SDS011;42052;41.634;-0.946;2023-05-07T04:06:29;1.52;;;0.70;;
56171;SDS011;42052;41.634;-0.946;2023-05-07T04:09:17;1.60;;;0.70;;
56171;SDS011;42052;41.634;-0.946;2023-05-07T04:12:03;2.13;;;0.60;;
56171;SDS011;42052;41.634;-0.946;2023-05-07T04:14:49;1.85;;;0.70;;
56171;SDS011;42052;41.634;-0.946;2023-05-07T04:17:35;2.42;;;0.70;;
56171;SDS011;42052;41.634;-0.946;2023-05-07T04:20:22;3.28;;;0.80;;
56171;SDS011;42052;41.634;-0.946;2023-05-07T04:23:08;1.33;;;0.60;;
56171;SDS011;42052;41.634;-0.946;2023-05-07T04:25:54;2.17;;;0.80;;
56171;SDS011;42052;41.634;-0.946;2023-05-07T04:28:41;2.85;;;0.70;;
56171;SDS011;42052;41.634;-0.946;2023-05-07T04:31:28;1.83;;;0.70;;
56171;SDS011;42052;41.634;-0.946;2023-05-07T04:34:14;4.57;;;0.80;;
56171;SDS011;42052;41.634;-0.946;2023-05-07T04:37:00;2.03;;;0.60;;
56171;SDS011;42052;41.634;-0.946;2023-05-07T04:39:46;1.90;;;0.70;;
56171;SDS011;42052;41.634;-0.946;2023-05-07T04:42:33;3.08;;;1.00;;
56171;SDS011;42052;41.634;-0.946;2023-05-07T04:45:19;1.85;;;0.50;;
56171;SDS011;42052;41.634;-0.946;2023-05-07T04:48:07;2.58;;;0.90;;
56171;SDS011;42052;41.634;-0.946;2023-05-07T04:50:54;1.85;;;0.70;;
56171;SDS011;42052;41.634;-0.946;2023-05-07T04:53:40;5.28;;;0.80;;
56171;SDS011;42052;41.634;-0.946;2023-05-07T04:56:28;2.53;;;0.70;;
56171;SDS011;42052;41.634;-0.946;2023-05-07T04:59:17;1.38;;;0.70;;
56171;SDS011;42052;41.634;-0.946;2023-05-07T05:02:03;2.35;;;0.65;;
56171;SDS011;42052;41.634;-0.946;2023-05-07T05:04:50;2.50;;;0.80;;
56171;SDS011;42052;41.634;-0.946;2023-05-07T05:07:36;3.58;;;0.80;;
56171;SDS011;42052;41.634;-0.946;2023-05-07T05:10:22;2.50;;;0.80;;
56171;SDS011;42052;41.634;-0.946;2023-05-07T05:13:08;5.68;;;0.80;;
56171;SDS011;42052;41.634;-0.946;2023-05-07T05:15:55;1.83;;;0.80;;
56171;SDS011;42052;41.634;-0.946;2023-05-07T05:18:41;1.23;;;0.60;;
56171;SDS011;42052;41.634;-0.946;2023-05-07T05:21:27;5.03;;;0.75;;
56171;SDS011;42052;41.634;-0.946;2023-05-07T05:24:13;1.75;;;0.70;;
56171;SDS011;42052;41.634;-0.946;2023-05-07T05:27:00;3.28;;;1.00;;
56171;SDS011;42052;41.634;-0.946;2023-05-07T05:29:47;3.75;;;0.70;;
56171;SDS011;42052;41.634;-0.946;2023-05-07T05:32:33;2.28;;;0.80;;
56171;SDS011;42052;41.634;-0.946;2023-05-07T05:35:19;1.55;;;0.70;;
56171;SDS011;42052;41.634;-0.946;2023-05-07T05:38:05;2.03;;;0.70;;
56171;SDS011;42052;41.634;-0.946;2023-05-07T05:40:51;4.32;;;0.80;;
56171;SDS011;42052;41.634;-0.946;2023-05-07T05:43:37;2.25;;;0.80;;
56171;SDS011;42052;41.634;-0.946;2023-05-07T05:46:23;3.47;;;0.73;;
56171;SDS011;42052;41.634;-0.946;2023-05-07T05:49:09;3.38;;;0.70;;
56171;SDS011;42052;41.634;-0.946;2023-05-07T05:51:55;1.75;;;0.57;;
56171;SDS011;42052;41.634;-0.946;2023-05-07T05:54:41;1.23;;;0.60;;
56171;SDS011;42052;41.634;-0.946;2023-05-07T05:57:28;2.35;;;0.80;;
56171;SDS011;42052;41.634;-0.946;2023-05-07T06:00:14;1.33;;;0.68;;
56171;SDS011;42052;41.634;-0.946;2023-05-07T06:03:01;2.63;;;0.70;;
56171;SDS011;42052;41.634;-0.946;2023-05-07T06:05:47;1.98;;;0.68;;
56171;SDS011;42052;41.634;-0.946;2023-05-07T06:08:33;1.50;;;0.50;;
56171;SDS011;42052;41.634;-0.946;2023-05-07T06:11:19;2.67;;;0.80;;
56171;SDS011;42052;41.634;-0.946;2023-05-07T06:14:05;2.42;;;0.80;;
56171;SDS011;42052;41.634;-0.946;2023-05-07T06:16:51;1.80;;;0.70;;
56171;SDS011;42052;41.634;-0.946;2023-05-07T06:19:37;1.83;;;0.68;;
56171;SDS011;42052;41.634;-0.946;2023-05-07T06:22:23;2.65;;;0.68;;
56171;SDS011;42052;41.634;-0.946;2023-05-07T06:25:09;1.85;;;0.63;;
56171;SDS011;42052;41.634;-0.946;2023-05-07T06:27:55;2.30;;;0.90;;
56171;SDS011;42052;41.634;-0.946;2023-05-07T06:30:41;2.05;;;0.70;;
56171;SDS011;42052;41.634;-0.946;2023-05-07T06:33:28;2.55;;;0.82;;
56171;SDS011;42052;41.634;-0.946;2023-05-07T06:36:14;1.98;;;0.73;;
56171;SDS011;42052;41.634;-0.946;2023-05-07T06:39:00;1.70;;;0.60;;
56171;SDS011;42052;41.634;-0.946;2023-05-07T06:41:46;2.45;;;0.60;;
56171;SDS011;42052;41.634;-0.946;2023-05-07T06:44:32;4.82;;;0.88;;
56171;SDS011;42052;41.634;-0.946;2023-05-07T06:47:19;3.67;;;0.70;;
56171;SDS011;42052;41.634;-0.946;2023-05-07T06:50:05;1.55;;;0.60;;
56171;SDS011;42052;41.634;-0.946;2023-05-07T06:52:51;1.92;;;0.65;;
56171;SDS011;42052;41.634;-0.946;2023-05-07T06:55:38;2.75;;;0.80;;
56171;SDS011;42052;41.634;-0.946;2023-05-07T06:58:24;3.33;;;0.60;;
56171;SDS011;42052;41.634;-0.946;2023-05-07T07:01:10;2.00;;;0.70;;
56171;SDS011;42052;41.634;-0.946;2023-05-07T07:03:56;2.95;;;0.90;;
56171;SDS011;42052;41.634;-0.946;2023-05-07T07:06:42;2.83;;;0.68;;
56171;SDS011;42052;41.634;-0.946;2023-05-07T07:09:29;2.13;;;0.70;;
56171;SDS011;42052;41.634;-0.946;2023-05-07T07:12:15;2.38;;;0.70;;
56171;SDS011;42052;41.634;-0.946;2023-05-07T07:15:01;2.83;;;0.80;;
56171;SDS011;42052;41.634;-0.946;2023-05-07T07:17:47;6.40;;;0.90;;
56171;SDS011;42052;41.634;-0.946;2023-05-07T07:20:34;5.22;;;1.00;;
56171;SDS011;42052;41.634;-0.946;2023-05-07T07:23:20;4.88;;;0.90;;
56171;SDS011;42052;41.634;-0.946;2023-05-07T07:26:06;3.92;;;0.80;;
56171;SDS011;42052;41.634;-0.946;2023-05-07T07:28:52;2.92;;;0.90;;
56171;SDS011;42052;41.634;-0.946;2023-05-07T07:31:38;7.25;;;1.23;;
56171;SDS011;42052;41.634;-0.946;2023-05-07T07:34:24;7.55;;;1.30;;
56171;SDS011;42052;41.634;-0.946;2023-05-07T07:37:10;7.32;;;1.15;;
56171;SDS011;42052;41.634;-0.946;2023-05-07T07:39:56;7.78;;;1.33;;
56171;SDS011;42052;41.634;-0.946;2023-05-07T07:42:42;5.50;;;1.05;;
56171;SDS011;42052;41.634;-0.946;2023-05-07T07:45:29;8.50;;;1.02;;
56171;SDS011;42052;41.634;-0.946;2023-05-07T07:48:15;9.65;;;1.20;;
56171;SDS011;42052;41.634;-0.946;2023-05-07T07:51:01;9.63;;;1.10;;
56171;SDS011;42052;41.634;-0.946;2023-05-07T07:53:47;6.55;;;1.40;;
56171;SDS011;42052;41.634;-0.946;2023-05-07T07:56:33;9.43;;;1.40;;
56171;SDS011;42052;41.634;-0.946;2023-05-07T07:59:19;7.32;;;1.20;;
56171;SDS011;42052;41.634;-0.946;2023-05-07T08:02:05;7.97;;;1.20;;
56171;SDS011;42052;41.634;-0.946;2023-05-07T08:04:51;6.82;;;1.30;;
56171;SDS011;42052;41.634;-0.946;2023-05-07T08:07:38;5.60;;;1.30;;
56171;SDS011;42052;41.634;-0.946;2023-05-07T08:10:24;14.70;;;1.90;;
56171;SDS011;42052;41.634;-0.946;2023-05-07T08:13:10;12.60;;;1.50;;
56171;SDS011;42052;41.634;-0.946;2023-05-07T08:15:56;10.88;;;1.52;;
56171;SDS011;42052;41.634;-0.946;2023-05-07T08:18:42;8.10;;;1.30;;
56171;SDS011;42052;41.634;-0.946;2023-05-07T08:21:28;9.40;;;1.38;;
56171;SDS011;42052;41.634;-0.946;2023-05-07T08:24:16;8.48;;;1.40;;
56171;SDS011;42052;41.634;-0.946;2023-05-07T08:27:02;6.20;;;1.40;;
56171;SDS011;42052;41.634;-0.946;2023-05-07T08:29:48;5.97;;;1.23;;
56171;SDS011;42052;41.634;-0.946;2023-05-07T08:32:35;7.18;;;1.35;;
56171;SDS011;42052;41.634;-0.946;2023-05-07T08:35:21;4.05;;;0.95;;
56171;SDS011;42052;41.634;-0.946;2023-05-07T08:38:07;8.60;;;0.90;;
56171;SDS011;42052;41.634;-0.946;2023-05-07T08:40:53;9.68;;;1.60;;
56171;SDS011;42052;41.634;-0.946;2023-05-07T08:43:40;4.50;;;1.10;;
56171;SDS011;42052;41.634;-0.946;2023-05-07T08:46:27;10.07;;;1.30;;
56171;SDS011;42052;41.634;-0.946;2023-05-07T08:49:17;8.30;;;1.73;;
56171;SDS011;42052;41.634;-0.946;2023-05-07T08:52:03;6.68;;;1.30;;
56171;SDS011;42052;41.634;-0.946;2023-05-07T08:54:49;4.93;;;1.35;;
56171;SDS011;42052;41.634;-0.946;2023-05-07T08:57:36;4.78;;;1.10;;
56171;SDS011;42052;41.634;-0.946;2023-05-07T09:00:22;5.95;;;1.10;;
56171;SDS011;42052;41.634;-0.946;2023-05-07T09:03:08;3.78;;;1.00;;
56171;SDS011;42052;41.634;-0.946;2023-05-07T09:05:57;4.03;;;1.10;;
56171;SDS011;42052;41.634;-0.946;2023-05-07T09:08:53;6.47;;;1.15;;
56171;SDS011;42052;41.634;-0.946;2023-05-07T09:11:40;4.15;;;1.10;;
56171;SDS011;42052;41.634;-0.946;2023-05-07T09:14:27;4.45;;;1.10;;
56171;SDS011;42052;41.634;-0.946;2023-05-07T09:17:14;7.20;;;1.20;;
56171;SDS011;42052;41.634;-0.946;2023-05-07T09:20:02;6.10;;;1.40;;
56171;SDS011;42052;41.634;-0.946;2023-05-07T09:22:51;7.20;;;1.30;;
56171;SDS011;42052;41.634;-0.946;2023-05-07T09:25:37;9.38;;;1.33;;
56171;SDS011;42052;41.634;-0.946;2023-05-07T09:28:23;7.88;;;1.25;;
56171;SDS011;42052;41.634;-0.946;2023-05-07T09:31:10;5.03;;;1.33;;
56171;SDS011;42052;41.634;-0.946;2023-05-07T09:33:57;4.75;;;1.05;;
56171;SDS011;42052;41.634;-0.946;2023-05-07T09:36:43;6.45;;;1.55;;
56171;SDS011;42052;41.634;-0.946;2023-05-07T09:39:45;5.85;;;1.17;;
56171;SDS011;42052;41.634;-0.946;2023-05-07T09:42:32;6.50;;;1.48;;
56171;SDS011;42052;41.634;-0.946;2023-05-07T09:45:28;6.22;;;1.40;;
56171;SDS011;42052;41.634;-0.946;2023-05-07T09:48:14;9.30;;;1.60;;
56171;SDS011;42052;41.634;-0.946;2023-05-07T09:51:03;3.95;;;1.10;;
56171;SDS011;42052;41.634;-0.946;2023-05-07T09:53:59;6.43;;;1.45;;
56171;SDS011;42052;41.634;-0.946;2023-05-07T09:56:48;4.20;;;1.10;;
56171;SDS011;42052;41.634;-0.946;2023-05-07T09:59:35;6.82;;;1.30;;
56171;SDS011;42052;41.634;-0.946;2023-05-07T10:02:23;4.57;;;1.40;;
56171;SDS011;42052;41.634;-0.946;2023-05-07T10:05:15;5.53;;;1.33;;
56171;SDS011;42052;41.634;-0.946;2023-05-07T10:08:02;7.05;;;1.50;;
56171;SDS011;42052;41.634;-0.946;2023-05-07T10:10:48;7.60;;;1.52;;
56171;SDS011;42052;41.634;-0.946;2023-05-07T10:13:35;3.72;;;1.38;;
56171;SDS011;42052;41.634;-0.946;2023-05-07T10:16:22;5.65;;;1.33;;
56171;SDS011;42052;41.634;-0.946;2023-05-07T10:19:09;5.50;;;1.42;;
56171;SDS011;42052;41.634;-0.946;2023-05-07T10:21:56;6.18;;;1.40;;
56171;SDS011;42052;41.634;-0.946;2023-05-07T10:24:49;6.80;;;1.80;;
56171;SDS011;42052;41.634;-0.946;2023-05-07T10:27:40;6.35;;;1.42;;
56171;SDS011;42052;41.634;-0.946;2023-05-07T10:33:23;8.68;;;1.50;;
56171;SDS011;42052;41.634;-0.946;2023-05-07T10:36:14;6.97;;;1.17;;
56171;SDS011;42052;41.634;-0.946;2023-05-07T10:39:00;6.75;;;1.30;;
56171;SDS011;42052;41.634;-0.946;2023-05-07T10:41:47;9.10;;;1.60;;
56171;SDS011;42052;41.634;-0.946;2023-05-07T10:44:34;6.00;;;1.38;;
56171;SDS011;42052;41.634;-0.946;2023-05-07T10:47:20;5.20;;;1.55;;
56171;SDS011;42052;41.634;-0.946;2023-05-07T10:53:26;8.52;;;1.60;;
56171;SDS011;42052;41.634;-0.946;2023-05-07T11:02:16;6.93;;;1.17;;
56171;SDS011;42052;41.634;-0.946;2023-05-07T11:05:24;5.78;;;1.42;;
56171;SDS011;42052;41.634;-0.946;2023-05-07T11:08:10;4.40;;;1.27;;
56171;SDS011;42052;41.634;-0.946;2023-05-07T11:10:57;5.93;;;1.25;;
56171;SDS011;42052;41.634;-0.946;2023-05-07T11:13:44;7.28;;;1.25;;
56171;SDS011;42052;41.634;-0.946;2023-05-07T11:16:30;6.53;;;1.25;;
56171;SDS011;42052;41.634;-0.946;2023-05-07T11:19:33;5.15;;;1.10;;
56171;SDS011;42052;41.634;-0.946;2023-05-07T11:22:37;5.90;;;1.20;;
56171;SDS011;42052;41.634;-0.946;2023-05-07T11:25:25;6.20;;;1.15;;
56171;SDS011;42052;41.634;-0.946;2023-05-07T11:28:11;5.45;;;1.30;;
56171;SDS011;42052;41.634;-0.946;2023-05-07T11:30:58;5.15;;;1.30;;
56171;SDS011;42052;41.634;-0.946;2023-05-07T11:33:44;6.03;;;1.45;;
56171;SDS011;42052;41.634;-0.946;2023-05-07T11:36:31;11.40;;;1.65;;
56171;SDS011;42052;41.634;-0.946;2023-05-07T11:39:25;5.53;;;1.30;;
56171;SDS011;42052;41.634;-0.946;2023-05-07T11:42:25;4.78;;;1.20;;
56171;SDS011;42052;41.634;-0.946;2023-05-07T11:45:19;4.22;;;1.10;;
56171;SDS011;42052;41.634;-0.946;2023-05-07T11:48:10;6.55;;;1.17;;
56171;SDS011;42052;41.634;-0.946;2023-05-07T11:51:01;12.43;;;1.00;;
56171;SDS011;42052;41.634;-0.946;2023-05-07T11:53:49;5.63;;;1.50;;
56171;SDS011;42052;41.634;-0.946;2023-05-07T11:56:36;6.72;;;1.45;;
56171;SDS011;42052;41.634;-0.946;2023-05-07T11:59:22;6.53;;;1.30;;
56171;SDS011;42052;41.634;-0.946;2023-05-07T12:02:08;5.45;;;1.10;;
56171;SDS011;42052;41.634;-0.946;2023-05-07T12:04:55;3.65;;;1.17;;
56171;SDS011;42052;41.634;-0.946;2023-05-07T12:07:41;5.07;;;1.20;;
56171;SDS011;42052;41.634;-0.946;2023-05-07T12:10:27;4.72;;;1.27;;
56171;SDS011;42052;41.634;-0.946;2023-05-07T12:13:14;7.60;;;1.40;;
56171;SDS011;42052;41.634;-0.946;2023-05-07T12:16:01;3.95;;;1.20;;
56171;SDS011;42052;41.634;-0.946;2023-05-07T12:18:48;5.60;;;1.30;;
56171;SDS011;42052;41.634;-0.946;2023-05-07T12:21:35;6.72;;;1.17;;
56171;SDS011;42052;41.634;-0.946;2023-05-07T12:24:21;4.55;;;1.30;;
56171;SDS011;42052;41.634;-0.946;2023-05-07T12:27:07;7.88;;;1.30;;
56171;SDS011;42052;41.634;-0.946;2023-05-07T12:29:54;3.55;;;1.30;;
56171;SDS011;42052;41.634;-0.946;2023-05-07T12:32:44;4.57;;;1.50;;
56171;SDS011;42052;41.634;-0.946;2023-05-07T12:35:32;4.82;;;1.10;;
56171;SDS011;42052;41.634;-0.946;2023-05-07T12:38:26;2.78;;;0.90;;
56171;SDS011;42052;41.634;-0.946;2023-05-07T12:41:12;4.88;;;1.30;;
56171;SDS011;42052;41.634;-0.946;2023-05-07T12:43:58;4.85;;;1.40;;
56171;SDS011;42052;41.634;-0.946;2023-05-07T12:46:44;5.53;;;1.23;;
56171;SDS011;42052;41.634;-0.946;2023-05-07T12:49:34;7.28;;;1.30;;
56171;SDS011;42052;41.634;-0.946;2023-05-07T12:52:23;6.18;;;1.20;;
56171;SDS011;42052;41.634;-0.946;2023-05-07T12:55:09;6.40;;;1.08;;
56171;SDS011;42052;41.634;-0.946;2023-05-07T12:58:00;6.38;;;1.08;;
56171;SDS011;42052;41.634;-0.946;2023-05-07T13:00:48;4.50;;;1.10;;
56171;SDS011;42052;41.634;-0.946;2023-05-07T13:03:36;7.82;;;1.00;;
56171;SDS011;42052;41.634;-0.946;2023-05-07T13:06:23;2.85;;;1.00;;
56171;SDS011;42052;41.634;-0.946;2023-05-07T13:09:09;4.32;;;1.10;;
56171;SDS011;42052;41.634;-0.946;2023-05-07T13:11:55;3.38;;;1.10;;
56171;SDS011;42052;41.634;-0.946;2023-05-07T13:14:41;7.20;;;1.23;;
56171;SDS011;42052;41.634;-0.946;2023-05-07T13:17:27;3.05;;;0.93;;
56171;SDS011;42052;41.634;-0.946;2023-05-07T13:20:13;4.22;;;0.77;;
56171;SDS011;42052;41.634;-0.946;2023-05-07T13:23:00;4.60;;;0.90;;
56171;SDS011;42052;41.634;-0.946;2023-05-07T13:25:47;3.08;;;0.90;;
56171;SDS011;42052;41.634;-0.946;2023-05-07T13:28:34;2.10;;;0.77;;
56171;SDS011;42052;41.634;-0.946;2023-05-07T13:31:20;2.88;;;0.82;;
56171;SDS011;42052;41.634;-0.946;2023-05-07T13:34:06;4.53;;;1.10;;
56171;SDS011;42052;41.634;-0.946;2023-05-07T13:36:53;4.07;;;1.13;;
56171;SDS011;42052;41.634;-0.946;2023-05-07T13:39:39;6.95;;;1.08;;
56171;SDS011;42052;41.634;-0.946;2023-05-07T13:42:26;2.92;;;0.80;;
56171;SDS011;42052;41.634;-0.946;2023-05-07T13:45:12;8.88;;;1.00;;
56171;SDS011;42052;41.634;-0.946;2023-05-07T13:47:59;10.98;;;1.15;;
56171;SDS011;42052;41.634;-0.946;2023-05-07T13:50:45;4.82;;;0.80;;
56171;SDS011;42052;41.634;-0.946;2023-05-07T13:53:31;3.97;;;0.80;;
56171;SDS011;42052;41.634;-0.946;2023-05-07T13:56:17;4.28;;;1.08;;
56171;SDS011;42052;41.634;-0.946;2023-05-07T13:59:03;6.35;;;0.85;;
56171;SDS011;42052;41.634;-0.946;2023-05-07T14:01:50;4.03;;;1.10;;
56171;SDS011;42052;41.634;-0.946;2023-05-07T14:04:37;3.05;;;0.80;;
56171;SDS011;42052;41.634;-0.946;2023-05-07T14:07:23;3.97;;;0.98;;
56171;SDS011;42052;41.634;-0.946;2023-05-07T14:10:09;3.75;;;0.90;;
56171;SDS011;42052;41.634;-0.946;2023-05-07T14:12:56;5.78;;;0.93;;
56171;SDS011;42052;41.634;-0.946;2023-05-07T14:15:42;2.65;;;0.80;;
56171;SDS011;42052;41.634;-0.946;2023-05-07T14:18:31;2.83;;;0.90;;
56171;SDS011;42052;41.634;-0.946;2023-05-07T14:21:19;8.73;;;1.20;;
56171;SDS011;42052;41.634;-0.946;2023-05-07T14:24:06;9.52;;;1.33;;
56171;SDS011;42052;41.634;-0.946;2023-05-07T14:26:53;5.47;;;0.98;;
56171;SDS011;42052;41.634;-0.946;2023-05-07T14:29:40;5.53;;;1.08;;
56171;SDS011;42052;41.634;-0.946;2023-05-07T14:32:26;3.67;;;0.70;;
56171;SDS011;42052;41.634;-0.946;2023-05-07T14:35:12;5.90;;;0.90;;
56171;SDS011;42052;41.634;-0.946;2023-05-07T14:37:58;4.03;;;0.90;;
56171;SDS011;42052;41.634;-0.946;2023-05-07T14:40:45;4.78;;;0.70;;
56171;SDS011;42052;41.634;-0.946;2023-05-07T14:43:31;4.60;;;0.93;;
56171;SDS011;42052;41.634;-0.946;2023-05-07T14:46:17;7.72;;;0.63;;
56171;SDS011;42052;41.634;-0.946;2023-05-07T14:49:04;2.95;;;0.70;;
56171;SDS011;42052;41.634;-0.946;2023-05-07T14:51:51;5.65;;;0.93;;
56171;SDS011;42052;41.634;-0.946;2023-05-07T14:54:37;5.00;;;0.80;;
56171;SDS011;42052;41.634;-0.946;2023-05-07T14:57:23;4.72;;;0.90;;
56171;SDS011;42052;41.634;-0.946;2023-05-07T15:00:09;5.15;;;0.80;;
56171;SDS011;42052;41.634;-0.946;2023-05-07T15:02:56;6.97;;;0.93;;
56171;SDS011;42052;41.634;-0.946;2023-05-07T15:05:51;7.07;;;1.02;;
56171;SDS011;42052;41.634;-0.946;2023-05-07T15:08:37;9.85;;;1.00;;
56171;SDS011;42052;41.634;-0.946;2023-05-07T15:11:23;10.93;;;1.00;;
56171;SDS011;42052;41.634;-0.946;2023-05-07T15:14:09;5.80;;;1.08;;
56171;SDS011;42052;41.634;-0.946;2023-05-07T15:16:56;6.68;;;0.80;;
56171;SDS011;42052;41.634;-0.946;2023-05-07T15:19:42;3.50;;;0.57;;
56171;SDS011;42052;41.634;-0.946;2023-05-07T15:22:28;3.67;;;0.60;;
56171;SDS011;42052;41.634;-0.946;2023-05-07T15:25:15;1.75;;;0.60;;
56171;SDS011;42052;41.634;-0.946;2023-05-07T15:28:01;2.10;;;0.63;;
56171;SDS011;42052;41.634;-0.946;2023-05-07T15:30:47;2.72;;;0.60;;
56171;SDS011;42052;41.634;-0.946;2023-05-07T15:33:34;1.63;;;0.45;;
56171;SDS011;42052;41.634;-0.946;2023-05-07T15:36:20;3.03;;;0.47;;
56171;SDS011;42052;41.634;-0.946;2023-05-07T15:39:06;2.80;;;0.50;;
56171;SDS011;42052;41.634;-0.946;2023-05-07T15:41:52;3.67;;;0.63;;
56171;SDS011;42052;41.634;-0.946;2023-05-07T15:44:38;2.90;;;0.55;;
56171;SDS011;42052;41.634;-0.946;2023-05-07T15:47:24;1.25;;;0.30;;
56171;SDS011;42052;41.634;-0.946;2023-05-07T15:50:10;1.33;;;0.50;;
56171;SDS011;42052;41.634;-0.946;2023-05-07T15:52:57;2.65;;;0.70;;
56171;SDS011;42052;41.634;-0.946;2023-05-07T15:55:43;3.20;;;0.57;;
56171;SDS011;42052;41.634;-0.946;2023-05-07T15:58:29;2.03;;;0.47;;
56171;SDS011;42052;41.634;-0.946;2023-05-07T16:01:15;2.20;;;0.60;;
56171;SDS011;42052;41.634;-0.946;2023-05-07T16:04:01;2.72;;;0.90;;
56171;SDS011;42052;41.634;-0.946;2023-05-07T16:06:48;3.28;;;0.80;;
56171;SDS011;42052;41.634;-0.946;2023-05-07T16:09:34;2.25;;;0.80;;
56171;SDS011;42052;41.634;-0.946;2023-05-07T16:12:20;3.55;;;0.80;;
56171;SDS011;42052;41.634;-0.946;2023-05-07T16:15:07;3.75;;;0.85;;
56171;SDS011;42052;41.634;-0.946;2023-05-07T16:17:53;1.20;;;0.50;;
56171;SDS011;42052;41.634;-0.946;2023-05-07T16:20:42;3.05;;;0.88;;
56171;SDS011;42052;41.634;-0.946;2023-05-07T16:23:28;4.18;;;0.93;;
56171;SDS011;42052;41.634;-0.946;2023-05-07T16:26:14;3.72;;;0.90;;
56171;SDS011;42052;41.634;-0.946;2023-05-07T16:29:02;5.88;;;0.80;;
56171;SDS011;42052;41.634;-0.946;2023-05-07T16:31:52;4.50;;;0.82;;
56171;SDS011;42052;41.634;-0.946;2023-05-07T16:34:38;3.10;;;0.73;;
56171;SDS011;42052;41.634;-0.946;2023-05-07T16:37:24;5.95;;;1.05;;
56171;SDS011;42052;41.634;-0.946;2023-05-07T16:40:10;4.05;;;0.77;;
56171;SDS011;42052;41.634;-0.946;2023-05-07T16:42:57;2.63;;;0.80;;